createdAt,value
2018-09-26T00:00:08.753Z,8.10
2018-09-26T00:02:44.267Z,8.10
2018-09-26T00:05:13.128Z,8.10
2018-09-26T00:07:41.936Z,8.00
2018-09-26T00:10:10.767Z,8.10
2018-09-26T00:12:39.566Z,8.10
2018-09-26T00:15:08.559Z,8.10
2018-09-26T00:17:37.466Z,8.10
2018-09-26T00:20:06.679Z,8.10
2018-09-26T00:22:35.725Z,8.20
2018-09-26T00:25:04.696Z,8.10
2018-09-26T00:27:33.517Z,8.10
2018-09-26T00:30:02.353Z,8.10
2018-09-26T00:32:31.249Z,8.10
2018-09-26T00:35:00.114Z,8.10
2018-09-26T00:37:28.987Z,8.00
2018-09-26T00:39:57.915Z,8.00
2018-09-26T00:42:26.686Z,8.10
2018-09-26T00:44:55.436Z,8.00
2018-09-26T00:47:24.378Z,8.00
2018-09-26T00:49:53.134Z,8.00
2018-09-26T00:52:21.885Z,8.00
2018-09-26T00:54:50.693Z,8.10
2018-09-26T00:57:19.540Z,8.00
2018-09-26T00:59:48.372Z,8.00
2018-09-26T01:02:17.014Z,8.00
2018-09-26T01:04:45.709Z,8.00
2018-09-26T01:07:14.549Z,8.00
2018-09-26T01:09:43.582Z,7.90
2018-09-26T01:12:12.206Z,7.80
2018-09-26T01:14:40.886Z,7.80
2018-09-26T01:17:09.583Z,7.70
2018-09-26T01:19:38.419Z,7.70
2018-09-26T01:22:07.149Z,7.70
2018-09-26T01:24:35.785Z,7.60
2018-09-26T01:27:11.177Z,7.50
2018-09-26T01:29:46.213Z,7.50
2018-09-26T01:32:15.103Z,7.50
2018-09-26T01:34:43.999Z,7.50
2018-09-26T01:37:12.649Z,7.50
2018-09-26T01:39:41.708Z,7.50
2018-09-26T01:42:10.407Z,7.50
2018-09-26T01:44:39.044Z,7.50
2018-09-26T01:47:07.689Z,7.40
2018-09-26T01:49:36.333Z,7.40
2018-09-26T01:52:05.234Z,7.40
2018-09-26T01:54:33.914Z,7.40
2018-09-26T01:57:02.535Z,7.30
2018-09-26T01:59:31.237Z,7.40
2018-09-26T02:01:59.875Z,7.40
2018-09-26T02:04:28.588Z,7.40
2018-09-26T02:06:57.238Z,7.40
2018-09-26T02:09:26.047Z,7.40
2018-09-26T02:11:54.699Z,7.40
2018-09-26T02:14:24.337Z,7.40
2018-09-26T02:16:53.072Z,7.40
2018-09-26T02:19:21.708Z,7.50
2018-09-26T02:21:50.409Z,7.50
2018-09-26T02:24:19.362Z,7.50
2018-09-26T02:26:48.149Z,7.50
2018-09-26T02:29:16.823Z,7.50
2018-09-26T02:31:45.467Z,7.40
2018-09-26T02:34:14.158Z,7.40
2018-09-26T02:36:42.782Z,7.40
2018-09-26T02:39:11.457Z,7.30
2018-09-26T02:41:40.070Z,7.30
2018-09-26T02:44:08.730Z,7.20
2018-09-26T02:46:37.352Z,7.20
2018-09-26T02:49:06.754Z,7.20
2018-09-26T02:51:36.902Z,7.20
2018-09-26T02:54:06.218Z,7.20
2018-09-26T02:56:34.829Z,7.20
2018-09-26T02:59:03.473Z,7.20
2018-09-26T03:01:32.277Z,7.20
2018-09-26T03:04:01.141Z,7.20
2018-09-26T03:06:29.786Z,7.20
2018-09-26T03:08:58.382Z,7.30
2018-09-26T03:11:27.033Z,7.30
2018-09-26T03:13:55.896Z,7.20
2018-09-26T03:16:24.556Z,7.30
2018-09-26T03:18:53.238Z,7.20
2018-09-26T03:21:21.949Z,7.20
2018-09-26T03:23:50.597Z,7.20
2018-09-26T03:26:19.983Z,7.20
2018-09-26T03:28:48.648Z,7.20
2018-09-26T03:31:17.289Z,7.20
2018-09-26T03:33:45.967Z,7.20
2018-09-26T03:36:14.711Z,7.10
2018-09-26T03:38:43.318Z,7.10
2018-09-26T03:41:11.960Z,7.10
2018-09-26T03:43:40.578Z,7.00
2018-09-26T03:46:09.409Z,7.00
2018-09-26T03:48:38.082Z,7.00
2018-09-26T03:51:07.030Z,7.00
2018-09-26T03:53:35.666Z,7.00
2018-09-26T03:56:04.333Z,7.00
2018-09-26T03:58:33.056Z,6.90
2018-09-26T04:01:01.778Z,7.00
2018-09-26T04:03:30.588Z,7.00
2018-09-26T04:05:59.211Z,7.00
2018-09-26T04:08:28.667Z,7.00
2018-09-26T04:10:57.576Z,7.00
2018-09-26T04:13:26.333Z,7.00
2018-09-26T04:15:55.779Z,7.00
2018-09-26T04:18:26.360Z,6.90
2018-09-26T04:20:55.863Z,6.90
2018-09-26T04:23:24.670Z,6.80
2018-09-26T04:25:53.467Z,6.80
2018-09-26T04:28:22.132Z,6.80
2018-09-26T04:30:50.902Z,6.80
2018-09-26T04:33:19.956Z,6.70
2018-09-26T04:35:48.475Z,6.70
2018-09-26T04:38:17.352Z,6.70
2018-09-26T04:40:46.078Z,6.70
2018-09-26T04:43:14.848Z,6.70
2018-09-26T04:45:43.569Z,6.70
2018-09-26T04:48:12.370Z,6.60
2018-09-26T04:50:41.147Z,6.70
2018-09-26T04:53:09.908Z,6.70
2018-09-26T04:55:38.638Z,6.60
2018-09-26T04:58:08.153Z,6.60
2018-09-26T05:00:36.949Z,6.60
2018-09-26T05:03:06.035Z,6.60
2018-09-26T05:05:34.702Z,6.60
2018-09-26T05:08:03.512Z,6.60
2018-09-26T05:10:32.315Z,6.60
2018-09-26T05:13:01.923Z,6.50
2018-09-26T05:15:30.639Z,6.50
2018-09-26T05:17:59.473Z,6.60
2018-09-26T05:20:28.160Z,6.60
2018-09-26T05:22:56.826Z,6.60
2018-09-26T05:25:25.562Z,6.70
2018-09-26T05:27:54.264Z,6.70
2018-09-26T05:30:23.045Z,6.70
2018-09-26T05:32:51.814Z,6.70
2018-09-26T05:35:20.558Z,6.70
2018-09-26T05:37:49.366Z,6.70
2018-09-26T05:40:18.179Z,6.70
2018-09-26T05:42:47.149Z,6.80
2018-09-26T05:45:15.898Z,6.70
2018-09-26T05:47:44.604Z,6.80
2018-09-26T05:50:13.396Z,6.80
2018-09-26T05:52:42.133Z,6.80
2018-09-26T05:55:10.897Z,6.80
2018-09-26T05:57:39.708Z,6.80
2018-09-26T06:00:08.751Z,6.90
2018-09-26T06:02:37.713Z,6.90
2018-09-26T06:05:06.522Z,7.00
2018-09-26T06:07:35.224Z,7.00
2018-09-26T06:10:03.928Z,6.90
2018-09-26T06:12:32.799Z,6.90
2018-09-26T06:15:01.558Z,7.00
2018-09-26T06:17:30.550Z,7.00
2018-09-26T06:19:59.584Z,7.00
2018-09-26T06:22:28.275Z,7.10
2018-09-26T06:24:56.991Z,7.10
2018-09-26T06:27:25.695Z,7.10
2018-09-26T06:29:54.597Z,7.20
2018-09-26T06:32:23.364Z,7.20
2018-09-26T06:34:52.388Z,7.30
2018-09-26T06:37:21.424Z,7.30
2018-09-26T06:39:50.369Z,7.30
2018-09-26T06:42:19.433Z,7.30
2018-09-26T06:44:48.693Z,7.30
2018-09-26T06:47:17.673Z,7.40
2018-09-26T06:49:46.485Z,7.40
2018-09-26T06:52:15.306Z,7.60
2018-09-26T06:54:44.193Z,7.60
2018-09-26T06:57:13.229Z,7.70
2018-09-26T06:59:42.259Z,7.70
2018-09-26T07:02:11.908Z,7.80
2018-09-26T07:04:41.023Z,7.90
2018-09-26T07:07:09.914Z,8.00
2018-09-26T07:09:38.797Z,8.00
2018-09-26T07:12:07.811Z,8.10
2018-09-26T07:14:36.796Z,8.30
2018-09-26T07:17:06.025Z,8.40
2018-09-26T07:19:35.007Z,8.60
2018-09-26T07:22:03.971Z,8.70
2018-09-26T07:24:33.124Z,8.80
2018-09-26T07:27:03.305Z,8.90
2018-09-26T07:29:32.400Z,9.10
2018-09-26T07:32:01.415Z,9.20
2018-09-26T07:34:35.420Z,9.20
2018-09-26T07:37:04.897Z,9.30
2018-09-26T07:39:34.247Z,9.30
2018-09-26T07:42:03.391Z,9.40
2018-09-26T07:44:32.643Z,9.40
2018-09-26T07:47:01.983Z,9.40
2018-09-26T07:49:31.216Z,9.50
2018-09-26T07:52:00.240Z,9.50
2018-09-26T07:54:29.179Z,9.50
2018-09-26T07:56:58.197Z,9.60
2018-09-26T07:59:27.502Z,9.70
2018-09-26T08:01:56.793Z,9.80
2018-09-26T08:04:26.160Z,9.90
2018-09-26T08:06:55.540Z,10.00
2018-09-26T08:09:24.558Z,10.20
2018-09-26T08:11:53.726Z,10.20
2018-09-26T08:14:25.525Z,10.20
2018-09-26T08:16:54.678Z,10.30
2018-09-26T08:19:23.905Z,10.40
2018-09-26T08:21:53.064Z,10.50
2018-09-26T08:24:22.116Z,10.70
2018-09-26T08:26:50.957Z,10.80
2018-09-26T08:29:19.883Z,10.80
2018-09-26T08:31:48.754Z,10.90
2018-09-26T08:34:17.760Z,11.00
2018-09-26T08:36:46.685Z,11.10
2018-09-26T08:39:15.764Z,11.20
2018-09-26T08:41:45.570Z,11.30
2018-09-26T08:44:14.589Z,11.40
2018-09-26T08:46:43.770Z,11.50
2018-09-26T08:49:13.722Z,11.70
2018-09-26T08:51:42.630Z,11.90
2018-09-26T08:54:11.881Z,12.10
2018-09-26T08:56:40.769Z,12.20
2018-09-26T08:59:09.720Z,12.40
2018-09-26T09:01:45.052Z,12.40
2018-09-26T09:04:15.709Z,12.60
2018-09-26T09:06:45.709Z,12.70
2018-09-26T09:09:14.475Z,13.00
2018-09-26T09:11:43.351Z,13.20
2018-09-26T09:14:12.394Z,13.40
2018-09-26T09:16:41.608Z,13.50
2018-09-26T09:19:11.907Z,13.60
2018-09-26T09:21:40.752Z,13.60
2018-09-26T09:24:09.761Z,13.70
2018-09-26T09:26:38.652Z,13.80
2018-09-26T09:29:07.872Z,13.90
2018-09-26T09:31:36.742Z,14.00
2018-09-26T09:34:05.840Z,14.30
2018-09-26T09:36:34.812Z,14.60
2018-09-26T09:39:04.187Z,14.80
2018-09-26T09:41:32.924Z,15.00
2018-09-26T09:44:08.632Z,15.10
2018-09-26T09:46:40.681Z,15.40
2018-09-26T09:49:16.109Z,15.40
2018-09-26T09:51:45.010Z,15.40
2018-09-26T09:54:13.939Z,15.50
2018-09-26T09:56:42.905Z,15.70
2018-09-26T09:59:11.976Z,16.00
2018-09-26T10:01:40.943Z,16.30
2018-09-26T10:04:09.959Z,16.40
2018-09-26T10:06:39.451Z,16.70
2018-09-26T10:09:08.479Z,16.80
2018-09-26T10:11:37.485Z,17.00
2018-09-26T10:14:06.724Z,17.40
2018-09-26T10:16:35.592Z,17.80
2018-09-26T10:19:04.466Z,18.20
2018-09-26T10:21:33.635Z,18.30
2018-09-26T10:24:02.943Z,18.20
2018-09-26T10:26:32.125Z,18.30
2018-09-26T10:29:01.053Z,18.40
2018-09-26T10:31:30.130Z,18.60
2018-09-26T10:33:59.052Z,18.60
2018-09-26T10:36:27.932Z,18.70
2018-09-26T10:38:56.839Z,18.90
2018-09-26T10:41:26.073Z,18.60
2018-09-26T10:43:55.109Z,18.60
2018-09-26T10:46:24.175Z,18.50
2018-09-26T10:48:53.155Z,18.30
2018-09-26T10:51:22.210Z,17.90
2018-09-26T10:53:51.223Z,17.70
2018-09-26T10:56:20.124Z,17.50
2018-09-26T10:58:48.920Z,17.50
2018-09-26T11:01:17.835Z,17.60
2018-09-26T11:03:47.018Z,17.80
2018-09-26T11:06:15.992Z,18.10
2018-09-26T11:08:45.107Z,18.40
2018-09-26T11:11:14.057Z,18.80
2018-09-26T11:13:43.121Z,19.40
2018-09-26T11:16:12.279Z,20.20
2018-09-26T11:18:41.448Z,21.00
2018-09-26T11:21:10.495Z,21.20
2018-09-26T11:23:39.774Z,21.50
2018-09-26T11:26:08.917Z,21.90
2018-09-26T11:28:37.745Z,22.10
2018-09-26T11:31:06.951Z,21.90
2018-09-26T11:33:36.100Z,22.10
2018-09-26T11:36:04.991Z,22.00
2018-09-26T11:38:34.081Z,22.20
2018-09-26T11:41:02.980Z,22.50
2018-09-26T11:43:32.407Z,22.50
2018-09-26T11:46:01.336Z,22.50
2018-09-26T11:48:30.368Z,22.80
2018-09-26T11:50:59.364Z,23.00
2018-09-26T11:53:28.320Z,23.50
2018-09-26T11:55:57.537Z,23.50
2018-09-26T11:58:26.618Z,23.60
2018-09-26T12:00:55.491Z,23.20
2018-09-26T12:03:24.523Z,22.70
2018-09-26T12:05:53.603Z,22.30
2018-09-26T12:08:22.766Z,22.20
2018-09-26T12:10:51.680Z,22.70
2018-09-26T12:13:20.704Z,23.10
2018-09-26T12:15:49.987Z,23.80
2018-09-26T12:18:19.066Z,24.30
2018-09-26T12:20:47.908Z,24.90
2018-09-26T12:23:16.961Z,25.30
2018-09-26T12:25:45.835Z,25.80
2018-09-26T12:28:14.970Z,26.30
2018-09-26T12:30:44.801Z,26.40
2018-09-26T12:33:13.997Z,26.70
2018-09-26T12:35:42.838Z,27.00
2018-09-26T12:38:11.950Z,27.40
2018-09-26T12:40:40.875Z,27.50
2018-09-26T12:43:09.950Z,28.10
2018-09-26T12:45:38.865Z,28.70
2018-09-26T12:48:08.059Z,28.90
2018-09-26T12:50:36.983Z,28.50
2018-09-26T12:53:05.975Z,28.80
2018-09-26T12:55:35.659Z,29.20
2018-09-26T12:58:04.957Z,29.30
2018-09-26T13:00:33.937Z,29.40
2018-09-26T13:03:03.251Z,29.70
2018-09-26T13:05:32.206Z,30.30
2018-09-26T13:08:01.367Z,30.70
2018-09-26T13:10:30.553Z,31.10
2018-09-26T13:12:59.554Z,31.40
2018-09-26T13:15:28.924Z,31.60
2018-09-26T13:17:57.904Z,31.60
2018-09-26T13:20:27.299Z,31.50
2018-09-26T13:22:56.488Z,31.80
2018-09-26T13:25:25.773Z,32.40
2018-09-26T13:27:54.683Z,32.70
2018-09-26T13:30:23.753Z,33.00
2018-09-26T13:32:52.775Z,33.20
2018-09-26T13:35:21.720Z,33.60
2018-09-26T13:37:50.697Z,34.10
2018-09-26T13:40:19.881Z,34.20
2018-09-26T13:42:48.774Z,34.60
2018-09-26T13:45:17.729Z,34.80
2018-09-26T13:47:46.835Z,34.90
2018-09-26T13:50:15.825Z,34.90
2018-09-26T13:52:45.162Z,34.70
2018-09-26T13:55:14.198Z,34.70
2018-09-26T13:57:43.255Z,34.50
2018-09-26T14:00:15.181Z,34.80
2018-09-26T14:02:43.979Z,34.80
2018-09-26T14:05:12.861Z,34.50
2018-09-26T14:07:41.843Z,34.10
2018-09-26T14:10:11.096Z,33.50
2018-09-26T14:12:40.088Z,33.80
2018-09-26T14:15:09.239Z,34.20
2018-09-26T14:17:38.252Z,34.30
2018-09-26T14:20:10.967Z,34.20
2018-09-26T14:22:39.950Z,34.30
2018-09-26T14:25:09.317Z,34.70
2018-09-26T14:27:38.548Z,35.20
2018-09-26T14:30:07.735Z,35.40
2018-09-26T14:32:36.796Z,35.90
2018-09-26T14:35:05.876Z,36.30
2018-09-26T14:37:34.714Z,36.20
2018-09-26T14:40:03.759Z,36.20
2018-09-26T14:42:32.663Z,35.20
2018-09-26T14:45:01.808Z,33.50
2018-09-26T14:47:30.839Z,32.40
2018-09-26T14:49:59.867Z,31.20
2018-09-26T14:52:28.657Z,29.60
2018-09-26T14:54:57.598Z,28.20
2018-09-26T14:57:26.371Z,27.20
2018-09-26T14:59:55.398Z,26.50
2018-09-26T15:02:24.650Z,26.10
2018-09-26T15:04:53.462Z,25.80
2018-09-26T15:07:22.677Z,25.60
2018-09-26T15:09:51.682Z,25.30
2018-09-26T15:12:20.742Z,25.20
2018-09-26T15:14:49.520Z,25.30
2018-09-26T15:17:18.431Z,25.20
2018-09-26T15:19:47.433Z,24.90
2018-09-26T15:22:16.602Z,24.70
2018-09-26T15:24:45.748Z,24.60
2018-09-26T15:27:14.824Z,24.60
2018-09-26T15:29:44.716Z,24.40
2018-09-26T15:32:13.779Z,24.20
2018-09-26T15:34:42.828Z,24.00
2018-09-26T15:37:11.994Z,23.90
2018-09-26T15:39:41.388Z,24.00
2018-09-26T15:42:10.807Z,24.60
2018-09-26T15:44:40.299Z,25.80
2018-09-26T15:47:09.834Z,27.20
2018-09-26T15:49:39.356Z,28.30
2018-09-26T15:52:09.144Z,28.80
2018-09-26T15:54:38.624Z,27.90
2018-09-26T15:57:08.855Z,26.80
2018-09-26T15:59:37.929Z,25.80
2018-09-26T16:02:07.464Z,24.90
2018-09-26T16:04:36.863Z,24.00
2018-09-26T16:07:06.402Z,23.40
2018-09-26T16:09:35.516Z,22.90
2018-09-26T16:12:04.716Z,22.50
2018-09-26T16:14:33.759Z,22.10
2018-09-26T16:17:03.098Z,21.80
2018-09-26T16:19:32.610Z,21.60
2018-09-26T16:22:02.210Z,21.40
2018-09-26T16:24:31.703Z,21.20
2018-09-26T16:27:01.211Z,21.10
2018-09-26T16:29:30.685Z,20.90
2018-09-26T16:32:00.246Z,20.80
2018-09-26T16:34:29.589Z,20.70
2018-09-26T16:36:58.907Z,20.60
2018-09-26T16:39:29.353Z,20.40
2018-09-26T16:42:01.635Z,20.30
2018-09-26T16:44:30.948Z,20.10
2018-09-26T16:47:00.296Z,20.00
2018-09-26T16:49:30.414Z,19.80
2018-09-26T16:51:59.918Z,19.70
2018-09-26T16:54:29.279Z,19.60
2018-09-26T16:56:58.686Z,19.50
2018-09-26T16:59:28.085Z,19.40
2018-09-26T17:01:57.375Z,19.30
2018-09-26T17:04:27.043Z,19.20
2018-09-26T17:06:56.541Z,19.00
2018-09-26T17:09:26.160Z,18.80
2018-09-26T17:11:55.614Z,18.70
2018-09-26T17:14:25.184Z,18.60
2018-09-26T17:16:54.347Z,18.50
2018-09-26T17:19:23.734Z,18.30
2018-09-26T17:21:53.802Z,18.20
2018-09-26T17:24:23.185Z,18.10
2018-09-26T17:26:52.520Z,17.90
2018-09-26T17:29:21.923Z,17.80
2018-09-26T17:31:51.075Z,17.70
2018-09-26T17:34:20.467Z,17.60
2018-09-26T17:36:50.359Z,17.50
2018-09-26T17:39:19.617Z,17.40
2018-09-26T17:41:48.900Z,17.30
2018-09-26T17:44:18.175Z,17.20
2018-09-26T17:46:47.415Z,17.10
2018-09-26T17:49:16.533Z,17.00
2018-09-26T17:51:46.378Z,16.90
2018-09-26T17:54:15.595Z,16.90
2018-09-26T17:56:44.747Z,16.80
2018-09-26T17:59:13.945Z,16.70
2018-09-26T18:01:43.179Z,16.60
2018-09-26T18:04:12.759Z,16.50
2018-09-26T18:06:42.033Z,16.40
2018-09-26T18:09:12.177Z,16.40
2018-09-26T18:11:41.431Z,16.30
2018-09-26T18:14:10.799Z,16.20
2018-09-26T18:16:40.378Z,16.10
2018-09-26T18:19:09.887Z,16.00
2018-09-26T18:21:39.268Z,15.80
2018-09-26T18:24:08.611Z,15.70
2018-09-26T18:26:37.934Z,15.60
2018-09-26T18:29:07.201Z,15.50
2018-09-26T18:31:36.524Z,15.50
2018-09-26T18:34:05.907Z,15.40
2018-09-26T18:36:35.342Z,15.30
2018-09-26T18:39:06.805Z,15.30
2018-09-26T18:41:35.979Z,15.20
2018-09-26T18:44:05.443Z,15.10
2018-09-26T18:46:34.790Z,15.10
2018-09-26T18:49:04.223Z,15.00
2018-09-26T18:51:33.658Z,14.90
2018-09-26T18:54:02.944Z,14.90
2018-09-26T18:56:32.407Z,14.80
2018-09-26T18:59:01.909Z,14.70
2018-09-26T19:01:31.271Z,14.60
2018-09-26T19:04:00.490Z,14.50
2018-09-26T19:06:29.787Z,14.50
2018-09-26T19:08:59.176Z,14.40
2018-09-26T19:11:28.447Z,14.40
2018-09-26T19:13:57.788Z,14.40
2018-09-26T19:16:27.071Z,14.30
2018-09-26T19:18:56.403Z,14.20
2018-09-26T19:21:25.825Z,14.20
2018-09-26T19:23:55.156Z,14.20
2018-09-26T19:26:24.412Z,14.10
2018-09-26T19:28:54.390Z,14.00
2018-09-26T19:31:23.860Z,13.90
2018-09-26T19:33:53.088Z,13.90
2018-09-26T19:36:22.511Z,13.80
2018-09-26T19:38:51.715Z,13.70
2018-09-26T19:41:20.928Z,13.70
2018-09-26T19:43:49.975Z,13.60
2018-09-26T19:46:19.334Z,13.60
2018-09-26T19:48:48.290Z,13.50
2018-09-26T19:51:17.231Z,13.50
2018-09-26T19:53:46.028Z,13.40
2018-09-26T19:56:15.068Z,13.30
2018-09-26T19:58:43.746Z,13.30
2018-09-26T20:01:12.700Z,13.20
2018-09-26T20:03:41.640Z,13.10
2018-09-26T20:06:10.630Z,13.00
2018-09-26T20:08:39.440Z,13.00
2018-09-26T20:11:09.214Z,12.90
2018-09-26T20:13:37.999Z,12.90
2018-09-26T20:16:06.787Z,12.90
2018-09-26T20:18:35.577Z,12.80
2018-09-26T20:21:04.382Z,12.70
2018-09-26T20:23:33.283Z,12.60
2018-09-26T20:26:01.970Z,12.60
2018-09-26T20:28:30.758Z,12.50
2018-09-26T20:30:59.578Z,12.50
2018-09-26T20:33:28.370Z,12.50
2018-09-26T20:35:57.216Z,12.50
2018-09-26T20:38:26.010Z,12.50
2018-09-26T20:40:54.919Z,12.40
2018-09-26T20:43:23.721Z,12.40
2018-09-26T20:45:52.653Z,12.30
2018-09-26T20:48:21.453Z,12.30
2018-09-26T20:50:50.380Z,12.20
2018-09-26T20:53:19.174Z,12.20
2018-09-26T20:55:48.210Z,12.20
2018-09-26T20:58:16.991Z,12.10
2018-09-26T21:00:45.792Z,12.10
2018-09-26T21:03:14.546Z,12.00
2018-09-26T21:05:43.789Z,11.90
2018-09-26T21:08:12.522Z,11.80
2018-09-26T21:10:41.374Z,11.80
2018-09-26T21:13:10.293Z,11.80
2018-09-26T21:15:39.429Z,11.70
2018-09-26T21:18:08.565Z,11.70
2018-09-26T21:20:37.428Z,11.70
2018-09-26T21:23:06.349Z,11.60
2018-09-26T21:25:35.092Z,11.70
2018-09-26T21:28:03.912Z,11.70
2018-09-26T21:30:32.620Z,11.60
2018-09-26T21:33:01.367Z,11.70
2018-09-26T21:35:30.400Z,11.60
2018-09-26T21:37:59.148Z,11.60
2018-09-26T21:40:28.087Z,11.50
2018-09-26T21:42:57.071Z,11.40
2018-09-26T21:45:25.905Z,11.30
2018-09-26T21:47:54.669Z,11.30
2018-09-26T21:50:23.348Z,11.20
2018-09-26T21:52:52.247Z,11.20
2018-09-26T21:55:20.958Z,11.20
2018-09-26T21:57:49.786Z,11.10
2018-09-26T22:00:18.647Z,11.00
2018-09-26T22:02:47.378Z,11.00
2018-09-26T22:05:16.215Z,10.90
2018-09-26T22:07:44.983Z,10.90
2018-09-26T22:10:14.025Z,10.80
2018-09-26T22:12:42.935Z,10.80
2018-09-26T22:15:27.154Z,10.80
2018-09-26T22:17:55.989Z,10.80
2018-09-26T22:20:24.827Z,10.80
2018-09-26T22:22:53.844Z,10.90
2018-09-26T22:25:22.552Z,11.00
2018-09-26T22:27:51.288Z,11.00
2018-09-26T22:30:20.010Z,10.90
2018-09-26T22:32:48.823Z,10.90
2018-09-26T22:35:17.604Z,10.90
2018-09-26T22:37:46.413Z,11.00
2018-09-26T22:40:15.172Z,10.90
2018-09-26T22:42:44.025Z,10.90
2018-09-26T22:45:12.975Z,10.80
2018-09-26T22:47:41.868Z,10.70
2018-09-26T22:50:10.679Z,10.70
2018-09-26T22:52:39.460Z,10.70
2018-09-26T22:55:08.285Z,10.60
2018-09-26T22:57:37.103Z,10.60
2018-09-26T23:00:05.924Z,10.50
2018-09-26T23:02:34.895Z,10.50
2018-09-26T23:05:03.669Z,10.50
2018-09-26T23:07:33.224Z,10.40
2018-09-26T23:10:02.965Z,10.40
2018-09-26T23:12:38.278Z,10.30
2018-09-26T23:15:07.128Z,10.30
2018-09-26T23:17:36.178Z,10.30
2018-09-26T23:20:05.136Z,10.30
2018-09-26T23:22:33.999Z,10.30
2018-09-26T23:25:02.748Z,10.30
2018-09-26T23:27:31.592Z,10.20
2018-09-26T23:30:00.303Z,10.20
2018-09-26T23:32:29.352Z,10.20
2018-09-26T23:34:58.099Z,10.20
2018-09-26T23:37:27.077Z,10.30
2018-09-26T23:39:56.070Z,10.20
2018-09-26T23:42:25.599Z,10.20
2018-09-26T23:44:54.494Z,10.20
2018-09-26T23:47:23.401Z,10.10
2018-09-26T23:49:52.243Z,10.10
2018-09-26T23:52:20.986Z,10.10
2018-09-26T23:54:49.799Z,10.10
2018-09-26T23:57:18.576Z,10.10
2018-09-26T23:59:47.400Z,10.20
